Terminal Aerodrome Forecast
Issued by NWS

Home | Current Version | Previous Version | Text Only | Print | Product List | Glossary Off
Versions: 1 2 3 4 5 6 7 8 9 10 11 12 13 14 15 16 17

000
FTUS43 KICT 011036 AAB
TAFHUT
TAF AMD
KHUT 011036Z 0111/0206 32020G30KT 5SM -RASN BKN008 OVC016
     FM011100 34022G32KT P6SM SCT007 BKN016
     FM011900 34026G35KT P6SM BKN035
     FM020100 34015G22KT P6SM SCT035=

USA.gov is the U.S. government's official web portal to all federal, state and local government web resources and services.